sensor_id;sensor_type;location;lat;lon;timestamp;temperature;humidity
16404;DHT22;8311;50.158;8.642;2023-07-20T00:00:31;25.00;43.50
16404;DHT22;8311;50.158;8.642;2023-07-20T00:03:25;24.90;43.50
16404;DHT22;8311;50.158;8.642;2023-07-20T00:06:18;25.00;43.50
16404;DHT22;8311;50.158;8.642;2023-07-20T00:09:13;24.90;43.50
16404;DHT22;8311;50.158;8.642;2023-07-20T00:12:06;24.90;43.70
16404;DHT22;8311;50.158;8.642;2023-07-20T00:14:59;25.00;43.70
16404;DHT22;8311;50.158;8.642;2023-07-20T00:17:53;24.90;43.30
16404;DHT22;8311;50.158;8.642;2023-07-20T00:20:45;24.90;43.50
16404;DHT22;8311;50.158;8.642;2023-07-20T00:23:38;24.90;43.70
16404;DHT22;8311;50.158;8.642;2023-07-20T00:26:33;24.90;43.70
16404;DHT22;8311;50.158;8.642;2023-07-20T00:29:27;24.90;43.80
16404;DHT22;8311;50.158;8.642;2023-07-20T00:32:20;24.90;43.90
16404;DHT22;8311;50.158;8.642;2023-07-20T00:35:13;24.90;43.90
16404;DHT22;8311;50.158;8.642;2023-07-20T00:38:05;24.90;43.90
16404;DHT22;8311;50.158;8.642;2023-07-20T00:40:59;24.90;44.00
16404;DHT22;8311;50.158;8.642;2023-07-20T00:43:54;24.90;43.90
16404;DHT22;8311;50.158;8.642;2023-07-20T00:46:48;24.90;43.90
16404;DHT22;8311;50.158;8.642;2023-07-20T00:49:40;24.90;43.90
16404;DHT22;8311;50.158;8.642;2023-07-20T00:52:34;24.80;43.90
16404;DHT22;8311;50.158;8.642;2023-07-20T00:55:28;24.80;43.90
16404;DHT22;8311;50.158;8.642;2023-07-20T00:58:22;24.80;44.00
16404;DHT22;8311;50.158;8.642;2023-07-20T01:01:17;24.80;44.00
16404;DHT22;8311;50.158;8.642;2023-07-20T01:04:11;24.80;44.80
16404;DHT22;8311;50.158;8.642;2023-07-20T01:07:12;24.80;44.10
16404;DHT22;8311;50.158;8.642;2023-07-20T01:10:12;24.80;44.10
16404;DHT22;8311;50.158;8.642;2023-07-20T01:13:09;24.80;44.30
16404;DHT22;8311;50.158;8.642;2023-07-20T01:16:03;24.80;44.30
16404;DHT22;8311;50.158;8.642;2023-07-20T01:18:58;24.80;44.30
16404;DHT22;8311;50.158;8.642;2023-07-20T01:21:57;24.80;44.30
16404;DHT22;8311;50.158;8.642;2023-07-20T01:25:18;24.80;44.40
16404;DHT22;8311;50.158;8.642;2023-07-20T01:28:37;24.80;44.30
16404;DHT22;8311;50.158;8.642;2023-07-20T01:31:33;24.80;44.40
16404;DHT22;8311;50.158;8.642;2023-07-20T01:34:28;24.80;44.40
16404;DHT22;8311;50.158;8.642;2023-07-20T01:37:23;24.80;44.30
16404;DHT22;8311;50.158;8.642;2023-07-20T01:40:20;24.80;44.40
16404;DHT22;8311;50.158;8.642;2023-07-20T01:43:16;24.70;44.40
16404;DHT22;8311;50.158;8.642;2023-07-20T01:46:10;24.70;44.40
16404;DHT22;8311;50.158;8.642;2023-07-20T01:49:05;24.70;44.50
16404;DHT22;8311;50.158;8.642;2023-07-20T01:51:59;24.80;44.50
16404;DHT22;8311;50.158;8.642;2023-07-20T01:54:52;24.70;44.40
16404;DHT22;8311;50.158;8.642;2023-07-20T01:57:45;24.70;44.40
16404;DHT22;8311;50.158;8.642;2023-07-20T02:00:38;24.70;44.50
16404;DHT22;8311;50.158;8.642;2023-07-20T02:03:31;24.70;44.50
16404;DHT22;8311;50.158;8.642;2023-07-20T02:06:26;24.70;44.70
16404;DHT22;8311;50.158;8.642;2023-07-20T02:09:19;24.60;44.80
16404;DHT22;8311;50.158;8.642;2023-07-20T02:12:12;24.60;45.50
16404;DHT22;8311;50.158;8.642;2023-07-20T02:15:07;24.70;44.90
16404;DHT22;8311;50.158;8.642;2023-07-20T02:18:00;24.60;44.80
16404;DHT22;8311;50.158;8.642;2023-07-20T02:20:55;24.60;44.90
16404;DHT22;8311;50.158;8.642;2023-07-20T02:23:51;24.60;44.90
16404;DHT22;8311;50.158;8.642;2023-07-20T02:26:44;24.60;44.90
16404;DHT22;8311;50.158;8.642;2023-07-20T02:29:37;24.60;45.00
16404;DHT22;8311;50.158;8.642;2023-07-20T02:32:30;24.60;44.90
16404;DHT22;8311;50.158;8.642;2023-07-20T02:35:23;24.60;44.80
16404;DHT22;8311;50.158;8.642;2023-07-20T02:38:17;24.60;44.90
16404;DHT22;8311;50.158;8.642;2023-07-20T02:41:11;24.60;45.10
16404;DHT22;8311;50.158;8.642;2023-07-20T02:44:04;24.60;44.90
16404;DHT22;8311;50.158;8.642;2023-07-20T02:46:58;24.60;44.80
16404;DHT22;8311;50.158;8.642;2023-07-20T02:49:51;24.60;44.80
16404;DHT22;8311;50.158;8.642;2023-07-20T02:52:45;24.60;44.90
16404;DHT22;8311;50.158;8.642;2023-07-20T02:55:39;24.60;45.00
16404;DHT22;8311;50.158;8.642;2023-07-20T02:58:34;24.60;45.00
16404;DHT22;8311;50.158;8.642;2023-07-20T03:01:29;24.50;45.10
16404;DHT22;8311;50.158;8.642;2023-07-20T03:04:23;24.60;45.30
16404;DHT22;8311;50.158;8.642;2023-07-20T03:07:18;24.50;45.20
16404;DHT22;8311;50.158;8.642;2023-07-20T03:10:11;24.50;45.20
16404;DHT22;8311;50.158;8.642;2023-07-20T03:13:05;24.50;45.20
16404;DHT22;8311;50.158;8.642;2023-07-20T03:16:00;24.50;45.10
16404;DHT22;8311;50.158;8.642;2023-07-20T03:18:54;24.50;45.00
16404;DHT22;8311;50.158;8.642;2023-07-20T03:21:47;24.40;45.00
16404;DHT22;8311;50.158;8.642;2023-07-20T03:24:39;24.40;45.20
16404;DHT22;8311;50.158;8.642;2023-07-20T03:27:32;24.40;45.10
16404;DHT22;8311;50.158;8.642;2023-07-20T03:30:26;24.40;45.00
16404;DHT22;8311;50.158;8.642;2023-07-20T03:33:21;24.40;45.10
16404;DHT22;8311;50.158;8.642;2023-07-20T03:36:15;24.40;44.90
16404;DHT22;8311;50.158;8.642;2023-07-20T03:39:08;24.40;45.00
16404;DHT22;8311;50.158;8.642;2023-07-20T03:42:01;24.50;45.50
16404;DHT22;8311;50.158;8.642;2023-07-20T03:44:54;24.50;44.90
16404;DHT22;8311;50.158;8.642;2023-07-20T03:47:48;24.50;44.80
16404;DHT22;8311;50.158;8.642;2023-07-20T03:50:44;24.50;45.40
16404;DHT22;8311;50.158;8.642;2023-07-20T03:53:38;24.50;45.00
16404;DHT22;8311;50.158;8.642;2023-07-20T03:56:33;24.50;45.00
16404;DHT22;8311;50.158;8.642;2023-07-20T03:59:28;24.50;45.10
16404;DHT22;8311;50.158;8.642;2023-07-20T04:02:20;24.50;45.10
16404;DHT22;8311;50.158;8.642;2023-07-20T04:05:14;24.50;45.10
16404;DHT22;8311;50.158;8.642;2023-07-20T04:08:08;24.60;45.10
16404;DHT22;8311;50.158;8.642;2023-07-20T04:11:03;24.40;45.30
16404;DHT22;8311;50.158;8.642;2023-07-20T04:13:57;24.40;45.80
16404;DHT22;8311;50.158;8.642;2023-07-20T04:16:50;24.50;45.50
16404;DHT22;8311;50.158;8.642;2023-07-20T04:19:44;24.60;45.60
16404;DHT22;8311;50.158;8.642;2023-07-20T04:22:37;24.60;45.20
16404;DHT22;8311;50.158;8.642;2023-07-20T04:25:31;24.70;45.10
16404;DHT22;8311;50.158;8.642;2023-07-20T04:28:30;24.70;45.00
16404;DHT22;8311;50.158;8.642;2023-07-20T04:31:23;24.70;44.90
16404;DHT22;8311;50.158;8.642;2023-07-20T04:34:17;24.70;44.90
16404;DHT22;8311;50.158;8.642;2023-07-20T04:37:10;24.80;45.00
16404;DHT22;8311;50.158;8.642;2023-07-20T04:40:06;24.80;44.80
16404;DHT22;8311;50.158;8.642;2023-07-20T04:43:01;24.80;44.80
16404;DHT22;8311;50.158;8.642;2023-07-20T04:45:55;24.80;44.70
16404;DHT22;8311;50.158;8.642;2023-07-20T04:48:49;24.90;44.80
16404;DHT22;8311;50.158;8.642;2023-07-20T04:51:42;24.80;44.50
16404;DHT22;8311;50.158;8.642;2023-07-20T04:54:36;24.80;44.50
16404;DHT22;8311;50.158;8.642;2023-07-20T04:57:29;24.80;44.50
16404;DHT22;8311;50.158;8.642;2023-07-20T05:00:23;24.80;44.50
16404;DHT22;8311;50.158;8.642;2023-07-20T05:03:17;24.80;44.50
16404;DHT22;8311;50.158;8.642;2023-07-20T05:06:11;24.80;44.50
16404;DHT22;8311;50.158;8.642;2023-07-20T05:09:04;24.80;44.50
16404;DHT22;8311;50.158;8.642;2023-07-20T05:12:02;24.80;44.50
16404;DHT22;8311;50.158;8.642;2023-07-20T05:14:55;24.80;44.50
16404;DHT22;8311;50.158;8.642;2023-07-20T05:17:49;24.70;44.40
16404;DHT22;8311;50.158;8.642;2023-07-20T05:20:41;24.70;44.40
16404;DHT22;8311;50.158;8.642;2023-07-20T05:23:35;24.70;44.50
16404;DHT22;8311;50.158;8.642;2023-07-20T05:26:28;24.80;44.60
16404;DHT22;8311;50.158;8.642;2023-07-20T05:29:20;24.70;44.50
16404;DHT22;8311;50.158;8.642;2023-07-20T05:32:17;24.70;44.50
16404;DHT22;8311;50.158;8.642;2023-07-20T05:35:11;24.70;44.60
16404;DHT22;8311;50.158;8.642;2023-07-20T05:38:05;24.70;44.70
16404;DHT22;8311;50.158;8.642;2023-07-20T05:41:00;24.70;44.70
16404;DHT22;8311;50.158;8.642;2023-07-20T05:43:54;24.70;44.70
16404;DHT22;8311;50.158;8.642;2023-07-20T05:46:47;24.70;44.70
16404;DHT22;8311;50.158;8.642;2023-07-20T05:49:49;24.70;44.70
16404;DHT22;8311;50.158;8.642;2023-07-20T05:52:44;24.70;44.70
16404;DHT22;8311;50.158;8.642;2023-07-20T05:55:38;24.60;44.70
16404;DHT22;8311;50.158;8.642;2023-07-20T05:58:32;24.70;44.80
16404;DHT22;8311;50.158;8.642;2023-07-20T06:01:28;24.70;44.80
16404;DHT22;8311;50.158;8.642;2023-07-20T06:04:21;24.70;44.80
16404;DHT22;8311;50.158;8.642;2023-07-20T06:07:14;24.60;44.80
16404;DHT22;8311;50.158;8.642;2023-07-20T06:10:09;24.60;44.80
16404;DHT22;8311;50.158;8.642;2023-07-20T06:13:02;24.60;44.90
16404;DHT22;8311;50.158;8.642;2023-07-20T06:15:55;24.60;44.90
16404;DHT22;8311;50.158;8.642;2023-07-20T06:18:48;24.70;44.90
16404;DHT22;8311;50.158;8.642;2023-07-20T06:21:41;24.70;44.90
16404;DHT22;8311;50.158;8.642;2023-07-20T06:24:34;24.70;44.90
16404;DHT22;8311;50.158;8.642;2023-07-20T06:27:28;24.70;44.90
16404;DHT22;8311;50.158;8.642;2023-07-20T06:30:24;24.70;44.90
16404;DHT22;8311;50.158;8.642;2023-07-20T06:33:17;24.70;44.90
16404;DHT22;8311;50.158;8.642;2023-07-20T06:36:10;24.80;44.90
16404;DHT22;8311;50.158;8.642;2023-07-20T06:39:04;24.80;45.00
16404;DHT22;8311;50.158;8.642;2023-07-20T06:42:00;24.80;45.20
16404;DHT22;8311;50.158;8.642;2023-07-20T06:44:54;24.80;45.30
16404;DHT22;8311;50.158;8.642;2023-07-20T06:47:48;24.80;46.10
16404;DHT22;8311;50.158;8.642;2023-07-20T06:50:43;24.80;46.40
16404;DHT22;8311;50.158;8.642;2023-07-20T06:53:36;24.80;45.10
16404;DHT22;8311;50.158;8.642;2023-07-20T06:56:30;24.80;45.00
16404;DHT22;8311;50.158;8.642;2023-07-20T06:59:25;24.50;45.40
16404;DHT22;8311;50.158;8.642;2023-07-20T07:02:19;24.60;46.70
16404;DHT22;8311;50.158;8.642;2023-07-20T07:05:13;24.60;45.90
16404;DHT22;8311;50.158;8.642;2023-07-20T07:08:12;24.50;45.70
16404;DHT22;8311;50.158;8.642;2023-07-20T07:11:05;24.40;45.80
16404;DHT22;8311;50.158;8.642;2023-07-20T07:13:58;24.50;45.70
16404;DHT22;8311;50.158;8.642;2023-07-20T07:16:51;24.50;45.60
16404;DHT22;8311;50.158;8.642;2023-07-20T07:19:51;24.60;45.50
16404;DHT22;8311;50.158;8.642;2023-07-20T07:22:45;24.60;45.50
16404;DHT22;8311;50.158;8.642;2023-07-20T07:25:45;24.60;45.50
16404;DHT22;8311;50.158;8.642;2023-07-20T07:28:40;24.60;45.30
16404;DHT22;8311;50.158;8.642;2023-07-20T07:31:34;24.60;45.40
16404;DHT22;8311;50.158;8.642;2023-07-20T07:34:28;24.60;45.40
16404;DHT22;8311;50.158;8.642;2023-07-20T07:37:23;24.70;45.30
16404;DHT22;8311;50.158;8.642;2023-07-20T07:40:17;24.70;45.40
16404;DHT22;8311;50.158;8.642;2023-07-20T07:43:11;24.70;45.30
16404;DHT22;8311;50.158;8.642;2023-07-20T07:46:06;24.70;45.30
16404;DHT22;8311;50.158;8.642;2023-07-20T07:49:00;24.70;45.30
16404;DHT22;8311;50.158;8.642;2023-07-20T07:51:53;24.80;45.40
16404;DHT22;8311;50.158;8.642;2023-07-20T07:54:47;24.80;45.50
16404;DHT22;8311;50.158;8.642;2023-07-20T07:57:41;24.80;45.40
16404;DHT22;8311;50.158;8.642;2023-07-20T08:00:35;24.80;45.30
16404;DHT22;8311;50.158;8.642;2023-07-20T08:03:28;24.80;45.40
16404;DHT22;8311;50.158;8.642;2023-07-20T08:06:21;24.80;45.40
16404;DHT22;8311;50.158;8.642;2023-07-20T08:09:16;24.80;45.90
16404;DHT22;8311;50.158;8.642;2023-07-20T08:12:10;24.90;45.40
16404;DHT22;8311;50.158;8.642;2023-07-20T08:15:06;24.90;45.30
16404;DHT22;8311;50.158;8.642;2023-07-20T08:17:59;24.70;46.00
16404;DHT22;8311;50.158;8.642;2023-07-20T08:20:52;24.50;46.00
16404;DHT22;8311;50.158;8.642;2023-07-20T08:23:45;24.60;45.90
16404;DHT22;8311;50.158;8.642;2023-07-20T08:26:38;24.70;45.70
16404;DHT22;8311;50.158;8.642;2023-07-20T08:29:32;24.70;45.60
16404;DHT22;8311;50.158;8.642;2023-07-20T08:32:26;24.70;45.50
16404;DHT22;8311;50.158;8.642;2023-07-20T08:35:20;24.70;45.20
16404;DHT22;8311;50.158;8.642;2023-07-20T08:38:14;24.70;45.20
16404;DHT22;8311;50.158;8.642;2023-07-20T08:41:09;24.70;45.20
16404;DHT22;8311;50.158;8.642;2023-07-20T08:44:02;24.70;45.20
16404;DHT22;8311;50.158;8.642;2023-07-20T08:46:57;24.80;45.30
16404;DHT22;8311;50.158;8.642;2023-07-20T08:49:55;24.80;45.30
16404;DHT22;8311;50.158;8.642;2023-07-20T08:52:48;24.80;45.20
16404;DHT22;8311;50.158;8.642;2023-07-20T08:55:45;24.70;45.00
16404;DHT22;8311;50.158;8.642;2023-07-20T08:58:39;24.80;45.00
16404;DHT22;8311;50.158;8.642;2023-07-20T09:01:35;24.70;44.90
16404;DHT22;8311;50.158;8.642;2023-07-20T09:04:32;24.80;45.00
16404;DHT22;8311;50.158;8.642;2023-07-20T09:07:28;24.80;45.00
16404;DHT22;8311;50.158;8.642;2023-07-20T09:10:23;24.70;44.80
16404;DHT22;8311;50.158;8.642;2023-07-20T09:13:16;24.70;44.90
16404;DHT22;8311;50.158;8.642;2023-07-20T09:16:13;24.70;45.00
16404;DHT22;8311;50.158;8.642;2023-07-20T09:19:06;24.70;45.20
16404;DHT22;8311;50.158;8.642;2023-07-20T09:22:01;24.70;45.20
16404;DHT22;8311;50.158;8.642;2023-07-20T09:24:54;24.80;45.40
16404;DHT22;8311;50.158;8.642;2023-07-20T09:27:48;24.80;45.10
16404;DHT22;8311;50.158;8.642;2023-07-20T09:30:43;24.70;45.40
16404;DHT22;8311;50.158;8.642;2023-07-20T09:33:44;24.70;45.30
16404;DHT22;8311;50.158;8.642;2023-07-20T09:36:42;24.80;45.50
16404;DHT22;8311;50.158;8.642;2023-07-20T09:39:43;24.80;45.50
16404;DHT22;8311;50.158;8.642;2023-07-20T09:42:40;24.80;45.40
16404;DHT22;8311;50.158;8.642;2023-07-20T09:45:57;24.80;44.90
16404;DHT22;8311;50.158;8.642;2023-07-20T09:48:52;24.80;45.50
16404;DHT22;8311;50.158;8.642;2023-07-20T09:51:49;24.80;45.30
16404;DHT22;8311;50.158;8.642;2023-07-20T09:54:45;24.80;45.30
16404;DHT22;8311;50.158;8.642;2023-07-20T09:57:39;24.80;45.40
16404;DHT22;8311;50.158;8.642;2023-07-20T10:00:33;24.90;45.40
16404;DHT22;8311;50.158;8.642;2023-07-20T10:03:30;24.90;45.50
16404;DHT22;8311;50.158;8.642;2023-07-20T10:06:27;24.80;45.60
16404;DHT22;8311;50.158;8.642;2023-07-20T10:09:22;24.90;45.70
16404;DHT22;8311;50.158;8.642;2023-07-20T10:12:20;24.90;45.60
16404;DHT22;8311;50.158;8.642;2023-07-20T10:15:18;24.90;45.60
16404;DHT22;8311;50.158;8.642;2023-07-20T10:18:18;24.90;45.60
16404;DHT22;8311;50.158;8.642;2023-07-20T10:21:17;24.90;45.60
16404;DHT22;8311;50.158;8.642;2023-07-20T10:24:14;24.90;45.60
16404;DHT22;8311;50.158;8.642;2023-07-20T10:27:08;24.90;45.50
16404;DHT22;8311;50.158;8.642;2023-07-20T10:30:03;24.90;45.60
16404;DHT22;8311;50.158;8.642;2023-07-20T10:32:57;24.90;45.50
16404;DHT22;8311;50.158;8.642;2023-07-20T10:35:56;24.90;45.60
16404;DHT22;8311;50.158;8.642;2023-07-20T10:38:53;24.90;45.60
16404;DHT22;8311;50.158;8.642;2023-07-20T10:41:46;24.90;45.70
16404;DHT22;8311;50.158;8.642;2023-07-20T10:44:40;24.90;45.70
16404;DHT22;8311;50.158;8.642;2023-07-20T10:47:45;24.90;45.80
16404;DHT22;8311;50.158;8.642;2023-07-20T10:50:39;24.90;45.80
16404;DHT22;8311;50.158;8.642;2023-07-20T10:53:33;24.90;45.70
16404;DHT22;8311;50.158;8.642;2023-07-20T10:56:28;24.90;45.70
16404;DHT22;8311;50.158;8.642;2023-07-20T10:59:37;24.90;45.80
16404;DHT22;8311;50.158;8.642;2023-07-20T11:02:41;24.90;45.70
16404;DHT22;8311;50.158;8.642;2023-07-20T11:05:38;24.90;45.80
16404;DHT22;8311;50.158;8.642;2023-07-20T11:08:39;24.90;45.70
16404;DHT22;8311;50.158;8.642;2023-07-20T11:11:34;24.90;45.70
16404;DHT22;8311;50.158;8.642;2023-07-20T11:14:27;24.90;45.80
16404;DHT22;8311;50.158;8.642;2023-07-20T11:17:20;24.90;45.80
16404;DHT22;8311;50.158;8.642;2023-07-20T11:20:21;24.90;45.80
16404;DHT22;8311;50.158;8.642;2023-07-20T11:23:16;24.90;45.80
16404;DHT22;8311;50.158;8.642;2023-07-20T11:26:09;24.90;45.70
16404;DHT22;8311;50.158;8.642;2023-07-20T11:29:04;25.00;45.80
16404;DHT22;8311;50.158;8.642;2023-07-20T11:32:20;24.90;45.80
16404;DHT22;8311;50.158;8.642;2023-07-20T11:35:14;24.90;46.00
16404;DHT22;8311;50.158;8.642;2023-07-20T11:38:07;25.00;45.80
16404;DHT22;8311;50.158;8.642;2023-07-20T11:41:02;25.00;45.80
16404;DHT22;8311;50.158;8.642;2023-07-20T11:43:57;25.00;45.80
16404;DHT22;8311;50.158;8.642;2023-07-20T11:46:50;25.00;45.80
16404;DHT22;8311;50.158;8.642;2023-07-20T11:49:44;25.00;45.80
16404;DHT22;8311;50.158;8.642;2023-07-20T11:52:41;25.00;45.80
16404;DHT22;8311;50.158;8.642;2023-07-20T11:55:36;25.00;45.80
16404;DHT22;8311;50.158;8.642;2023-07-20T11:58:32;25.00;45.80
16404;DHT22;8311;50.158;8.642;2023-07-20T12:01:26;25.00;45.80
16404;DHT22;8311;50.158;8.642;2023-07-20T12:04:22;25.00;45.80
16404;DHT22;8311;50.158;8.642;2023-07-20T12:07:16;25.00;45.80
16404;DHT22;8311;50.158;8.642;2023-07-20T12:10:11;25.00;45.80
16404;DHT22;8311;50.158;8.642;2023-07-20T12:13:04;25.00;45.80
16404;DHT22;8311;50.158;8.642;2023-07-20T12:16:07;25.00;45.70
16404;DHT22;8311;50.158;8.642;2023-07-20T12:19:02;25.00;45.80
16404;DHT22;8311;50.158;8.642;2023-07-20T12:21:57;25.00;45.80
16404;DHT22;8311;50.158;8.642;2023-07-20T12:24:52;25.00;45.80
16404;DHT22;8311;50.158;8.642;2023-07-20T12:27:48;25.00;45.80
16404;DHT22;8311;50.158;8.642;2023-07-20T12:30:42;25.00;46.30
16404;DHT22;8311;50.158;8.642;2023-07-20T12:33:37;25.00;45.80
16404;DHT22;8311;50.158;8.642;2023-07-20T12:36:30;25.00;45.80
16404;DHT22;8311;50.158;8.642;2023-07-20T12:39:23;25.00;45.80
16404;DHT22;8311;50.158;8.642;2023-07-20T12:42:17;25.00;45.80
16404;DHT22;8311;50.158;8.642;2023-07-20T12:45:13;25.00;45.80
16404;DHT22;8311;50.158;8.642;2023-07-20T12:48:06;25.00;45.80
16404;DHT22;8311;50.158;8.642;2023-07-20T12:51:00;25.00;45.80
16404;DHT22;8311;50.158;8.642;2023-07-20T12:53:53;25.00;45.80
16404;DHT22;8311;50.158;8.642;2023-07-20T12:56:46;25.00;45.80
16404;DHT22;8311;50.158;8.642;2023-07-20T12:59:42;25.00;45.80
16404;DHT22;8311;50.158;8.642;2023-07-20T13:02:35;25.00;45.80
16404;DHT22;8311;50.158;8.642;2023-07-20T13:05:28;25.00;45.80
16404;DHT22;8311;50.158;8.642;2023-07-20T13:08:26;25.00;45.80
16404;DHT22;8311;50.158;8.642;2023-07-20T13:11:19;25.00;45.80
16404;DHT22;8311;50.158;8.642;2023-07-20T13:14:13;25.00;45.90
16404;DHT22;8311;50.158;8.642;2023-07-20T13:17:06;25.00;46.50
16404;DHT22;8311;50.158;8.642;2023-07-20T13:20:01;25.00;45.80
16404;DHT22;8311;50.158;8.642;2023-07-20T13:22:56;25.00;45.90
16404;DHT22;8311;50.158;8.642;2023-07-20T13:25:50;25.00;45.90
16404;DHT22;8311;50.158;8.642;2023-07-20T13:28:43;25.00;45.80
16404;DHT22;8311;50.158;8.642;2023-07-20T13:31:37;24.90;46.40
16404;DHT22;8311;50.158;8.642;2023-07-20T13:34:33;25.00;45.90
16404;DHT22;8311;50.158;8.642;2023-07-20T13:37:29;25.00;45.90
16404;DHT22;8311;50.158;8.642;2023-07-20T13:40:23;25.00;45.90
16404;DHT22;8311;50.158;8.642;2023-07-20T13:43:18;25.00;45.90
16404;DHT22;8311;50.158;8.642;2023-07-20T13:46:11;25.00;45.80
16404;DHT22;8311;50.158;8.642;2023-07-20T13:49:09;25.00;45.90
16404;DHT22;8311;50.158;8.642;2023-07-20T13:52:05;25.00;45.90
16404;DHT22;8311;50.158;8.642;2023-07-20T13:55:02;25.00;45.90
16404;DHT22;8311;50.158;8.642;2023-07-20T13:57:56;25.00;45.90
16404;DHT22;8311;50.158;8.642;2023-07-20T14:00:51;25.00;45.90
16404;DHT22;8311;50.158;8.642;2023-07-20T14:03:46;25.00;45.90
16404;DHT22;8311;50.158;8.642;2023-07-20T14:06:39;25.00;45.90
16404;DHT22;8311;50.158;8.642;2023-07-20T14:09:33;25.00;45.90
16404;DHT22;8311;50.158;8.642;2023-07-20T14:12:26;25.00;45.90
16404;DHT22;8311;50.158;8.642;2023-07-20T14:15:20;25.00;45.90
16404;DHT22;8311;50.158;8.642;2023-07-20T14:18:15;25.00;45.90
16404;DHT22;8311;50.158;8.642;2023-07-20T14:21:11;25.00;45.90
16404;DHT22;8311;50.158;8.642;2023-07-20T14:24:05;25.00;45.90
16404;DHT22;8311;50.158;8.642;2023-07-20T14:27:00;25.00;46.00
16404;DHT22;8311;50.158;8.642;2023-07-20T14:29:53;25.00;45.90
16404;DHT22;8311;50.158;8.642;2023-07-20T14:32:47;25.00;45.90
16404;DHT22;8311;50.158;8.642;2023-07-20T14:35:42;25.00;45.90
16404;DHT22;8311;50.158;8.642;2023-07-20T14:38:35;25.00;45.90
16404;DHT22;8311;50.158;8.642;2023-07-20T14:41:29;25.00;46.50
16404;DHT22;8311;50.158;8.642;2023-07-20T14:44:22;25.00;45.90
16404;DHT22;8311;50.158;8.642;2023-07-20T14:47:16;25.00;45.90
16404;DHT22;8311;50.158;8.642;2023-07-20T14:50:09;25.00;45.80
16404;DHT22;8311;50.158;8.642;2023-07-20T14:53:04;25.00;45.50
16404;DHT22;8311;50.158;8.642;2023-07-20T14:56:01;25.00;45.50
16404;DHT22;8311;50.158;8.642;2023-07-20T14:58:55;25.00;45.40
16404;DHT22;8311;50.158;8.642;2023-07-20T15:01:49;25.00;45.30
16404;DHT22;8311;50.158;8.642;2023-07-20T15:04:47;25.00;45.30
16404;DHT22;8311;50.158;8.642;2023-07-20T15:07:40;25.00;45.20
16404;DHT22;8311;50.158;8.642;2023-07-20T15:10:35;25.00;45.10
16404;DHT22;8311;50.158;8.642;2023-07-20T15:13:28;25.00;45.10
16404;DHT22;8311;50.158;8.642;2023-07-20T15:16:21;25.00;45.10
16404;DHT22;8311;50.158;8.642;2023-07-20T15:19:16;25.00;45.10
16404;DHT22;8311;50.158;8.642;2023-07-20T15:22:08;25.00;45.10
16404;DHT22;8311;50.158;8.642;2023-07-20T15:25:03;25.00;45.10
16404;DHT22;8311;50.158;8.642;2023-07-20T15:27:58;25.00;45.10
16404;DHT22;8311;50.158;8.642;2023-07-20T15:30:50;25.00;45.10
16404;DHT22;8311;50.158;8.642;2023-07-20T15:33:50;25.00;45.10
16404;DHT22;8311;50.158;8.642;2023-07-20T15:36:46;25.00;45.10
16404;DHT22;8311;50.158;8.642;2023-07-20T15:39:40;25.00;45.10
16404;DHT22;8311;50.158;8.642;2023-07-20T15:42:33;25.00;45.10
16404;DHT22;8311;50.158;8.642;2023-07-20T15:45:31;25.00;45.10
16404;DHT22;8311;50.158;8.642;2023-07-20T15:48:26;25.00;45.20
16404;DHT22;8311;50.158;8.642;2023-07-20T15:51:19;25.00;45.10
16404;DHT22;8311;50.158;8.642;2023-07-20T15:54:14;25.00;45.10
16404;DHT22;8311;50.158;8.642;2023-07-20T15:57:08;25.00;45.10
16404;DHT22;8311;50.158;8.642;2023-07-20T16:00:02;25.00;45.10
16404;DHT22;8311;50.158;8.642;2023-07-20T16:02:59;25.00;45.10
16404;DHT22;8311;50.158;8.642;2023-07-20T16:05:53;25.00;45.10
16404;DHT22;8311;50.158;8.642;2023-07-20T16:08:46;25.00;46.00
16404;DHT22;8311;50.158;8.642;2023-07-20T16:11:39;25.00;46.30
16404;DHT22;8311;50.158;8.642;2023-07-20T16:14:32;25.00;46.50
16404;DHT22;8311;50.158;8.642;2023-07-20T16:17:45;25.00;46.30
16404;DHT22;8311;50.158;8.642;2023-07-20T16:20:40;25.00;46.20
16404;DHT22;8311;50.158;8.642;2023-07-20T16:23:32;25.00;46.10
16404;DHT22;8311;50.158;8.642;2023-07-20T16:26:26;25.00;43.10
16404;DHT22;8311;50.158;8.642;2023-07-20T16:29:18;24.90;43.20
16404;DHT22;8311;50.158;8.642;2023-07-20T16:32:16;24.90;42.00
16404;DHT22;8311;50.158;8.642;2023-07-20T16:35:09;24.90;42.80
16404;DHT22;8311;50.158;8.642;2023-07-20T16:38:05;24.90;42.50
16404;DHT22;8311;50.158;8.642;2023-07-20T16:41:00;24.90;41.10
16404;DHT22;8311;50.158;8.642;2023-07-20T16:43:53;24.90;42.20
16404;DHT22;8311;50.158;8.642;2023-07-20T16:46:49;24.90;41.60
16404;DHT22;8311;50.158;8.642;2023-07-20T16:49:45;24.90;39.30
16404;DHT22;8311;50.158;8.642;2023-07-20T16:52:41;24.80;39.20
16404;DHT22;8311;50.158;8.642;2023-07-20T16:55:36;24.80;39.30
16404;DHT22;8311;50.158;8.642;2023-07-20T16:58:32;24.80;38.80
16404;DHT22;8311;50.158;8.642;2023-07-20T17:01:26;24.80;38.60
16404;DHT22;8311;50.158;8.642;2023-07-20T17:04:19;24.80;38.60
16404;DHT22;8311;50.158;8.642;2023-07-20T17:07:12;24.80;38.30
16404;DHT22;8311;50.158;8.642;2023-07-20T17:10:08;24.70;39.20
16404;DHT22;8311;50.158;8.642;2023-07-20T17:13:04;24.60;39.60
16404;DHT22;8311;50.158;8.642;2023-07-20T17:16:01;24.60;39.90
16404;DHT22;8311;50.158;8.642;2023-07-20T17:18:58;24.60;40.50
16404;DHT22;8311;50.158;8.642;2023-07-20T17:21:54;24.60;40.20
16404;DHT22;8311;50.158;8.642;2023-07-20T17:24:48;24.60;40.50
16404;DHT22;8311;50.158;8.642;2023-07-20T17:27:43;24.60;40.80
16404;DHT22;8311;50.158;8.642;2023-07-20T17:30:41;24.60;40.70
16404;DHT22;8311;50.158;8.642;2023-07-20T17:33:34;24.60;41.20
16404;DHT22;8311;50.158;8.642;2023-07-20T17:36:27;24.50;41.40
16404;DHT22;8311;50.158;8.642;2023-07-20T17:39:23;24.50;41.40
16404;DHT22;8311;50.158;8.642;2023-07-20T17:42:22;24.50;42.40
16404;DHT22;8311;50.158;8.642;2023-07-20T17:45:17;24.50;41.20
16404;DHT22;8311;50.158;8.642;2023-07-20T17:48:12;24.50;41.60
16404;DHT22;8311;50.158;8.642;2023-07-20T17:51:06;24.50;41.10
16404;DHT22;8311;50.158;8.642;2023-07-20T17:54:00;24.50;41.60
16404;DHT22;8311;50.158;8.642;2023-07-20T17:56:53;24.50;42.40
16404;DHT22;8311;50.158;8.642;2023-07-20T17:59:46;24.40;41.50
16404;DHT22;8311;50.158;8.642;2023-07-20T18:02:42;24.40;41.20
16404;DHT22;8311;50.158;8.642;2023-07-20T18:05:37;24.40;40.90
16404;DHT22;8311;50.158;8.642;2023-07-20T18:08:32;24.30;41.10
16404;DHT22;8311;50.158;8.642;2023-07-20T18:11:25;24.30;41.50
16404;DHT22;8311;50.158;8.642;2023-07-20T18:14:19;24.40;41.40
16404;DHT22;8311;50.158;8.642;2023-07-20T18:17:12;24.40;41.80
16404;DHT22;8311;50.158;8.642;2023-07-20T18:20:06;24.40;41.90
16404;DHT22;8311;50.158;8.642;2023-07-20T18:23:02;24.40;41.90
16404;DHT22;8311;50.158;8.642;2023-07-20T18:25:56;24.40;41.40
16404;DHT22;8311;50.158;8.642;2023-07-20T18:28:50;24.40;41.90
16404;DHT22;8311;50.158;8.642;2023-07-20T18:31:43;24.40;41.70
16404;DHT22;8311;50.158;8.642;2023-07-20T18:34:36;24.40;41.60
16404;DHT22;8311;50.158;8.642;2023-07-20T18:37:32;24.40;42.30
16404;DHT22;8311;50.158;8.642;2023-07-20T18:40:27;24.40;41.90